Time;durP1;ratioP1;P1;durP2;ratioP2;P2;SDS_P1;SDS_P2;PMS_P1;PMS_P2;Temp;Humidity;BMP_temperature;BMP_pressure;BME280_temperature;BME280_humidity;BME280_pressure;Samples;Min_cycle;Max_cycle;Signal;HPM_P1;HPM_P2
2022/12/12 00:00:45;;;;;;;74.60;33.87;;;-4.00;18.90;;;;;;5056372;28;20174;-68
2022/12/12 00:03:11;;;;;;;72.88;33.00;;;-4.00;18.90;;;;;;5057664;28;20202;-68
2022/12/12 00:05:36;;;;;;;77.83;32.50;;;-4.20;18.90;;;;;;5057712;28;20534;-69
2022/12/12 00:08:02;;;;;;;75.00;31.77;;;-4.30;19.50;;;;;;5057760;28;20273;-69
2022/12/12 00:10:27;;;;;;;77.40;32.37;;;-4.40;19.60;;;;;;5057909;28;20539;-68
2022/12/12 00:12:53;;;;;;;74.43;36.27;;;-4.40;20.10;;;;;;5057648;28;20189;-69
2022/12/12 00:15:19;;;;;;;78.50;33.50;;;-4.40;20.30;;;;;;5057742;28;20177;-68
2022/12/12 00:17:44;;;;;;;75.27;32.80;;;-4.40;20.30;;;;;;5057418;28;20194;-69
2022/12/12 00:20:10;;;;;;;74.67;31.10;;;-4.30;20.40;;;;;;5058211;28;20174;-68
2022/12/12 00:22:36;;;;;;;74.10;36.33;;;-4.20;20.10;;;;;;5056514;28;20651;-68
2022/12/12 00:25:01;;;;;;;76.73;30.83;;;-4.10;19.70;;;;;;5057877;28;20882;-69
2022/12/12 00:27:27;;;;;;;75.70;40.07;;;-4.10;18.80;;;;;;5055982;28;20640;-68
2022/12/12 00:29:53;;;;;;;73.87;32.13;;;-4.10;18.70;;;;;;5058324;28;20841;-69
2022/12/12 00:32:19;;;;;;;75.50;29.88;;;-4.00;18.50;;;;;;5056015;28;20179;-69
2022/12/12 00:34:45;;;;;;;77.20;35.03;;;-4.10;18.80;;;;;;5057661;28;20182;-69
2022/12/12 00:37:10;;;;;;;77.30;34.40;;;-4.10;19.30;;;;;;5058091;28;20179;-69
2022/12/12 00:39:36;;;;;;;75.73;32.77;;;-4.20;18.90;;;;;;5058026;28;20202;-69
2022/12/12 00:42:01;;;;;;;76.90;34.03;;;-4.30;19.10;;;;;;5055914;28;20189;-68
2022/12/12 00:44:27;;;;;;;73.33;34.43;;;-4.40;19.40;;;;;;5056185;28;20187;-69
2022/12/12 00:46:53;;;;;;;79.17;40.00;;;-4.50;19.40;;;;;;5059362;28;20538;-67
2022/12/12 00:49:18;;;;;;;78.53;35.97;;;-4.50;19.80;;;;;;5060442;28;20198;-69
2022/12/12 00:51:44;;;;;;;94.37;41.67;;;-4.60;19.80;;;;;;5059555;28;20187;-69
2022/12/12 00:54:09;;;;;;;76.23;40.53;;;-4.70;20.20;;;;;;5060028;28;20178;-69
2022/12/12 00:56:35;;;;;;;75.63;36.87;;;-4.80;20.40;;;;;;5058931;28;20170;-69
2022/12/12 00:59:02;;;;;;;79.00;39.90;;;-4.90;21.20;;;;;;5057758;28;20214;-69
2022/12/12 01:01:30;;;;;;;82.45;40.38;;;-4.90;21.20;;;;;;5057853;28;20185;-68
2022/12/12 01:03:56;;;;;;;75.70;34.35;;;-4.90;21.50;;;;;;5059211;28;20224;-69
2022/12/12 01:06:22;;;;;;;75.93;34.30;;;-5.00;22.00;;;;;;5061169;28;20182;-68
2022/12/12 01:08:48;;;;;;;78.05;34.85;;;-5.00;21.70;;;;;;5059838;28;20605;-69
2022/12/12 01:11:15;;;;;;;75.00;37.00;;;-5.00;21.70;;;;;;5057544;28;20179;-68
2022/12/12 01:13:41;;;;;;;71.82;28.25;;;-5.00;22.00;;;;;;5057834;28;20171;-69
2022/12/12 01:16:08;;;;;;;71.97;32.55;;;-5.10;21.90;;;;;;5055881;28;20175;-68
2022/12/12 01:18:34;;;;;;;74.85;30.58;;;-5.20;21.90;;;;;;5056497;28;20226;-69
2022/12/12 01:21:00;;;;;;;72.60;29.25;;;-5.20;21.90;;;;;;5054532;28;20177;-68
2022/12/12 01:23:26;;;;;;;74.03;32.53;;;-5.20;21.90;;;;;;5056364;28;20179;-68
2022/12/12 01:26:10;;;;;;;76.60;34.53;;;-5.30;21.80;;;;;;5055266;28;20179;-68
2022/12/12 01:28:36;;;;;;;75.50;31.90;;;-5.30;21.80;;;;;;5056633;28;20444;-68
2022/12/12 01:31:02;;;;;;;75.10;32.50;;;-5.40;21.70;;;;;;5055677;28;20194;-67
2022/12/12 01:33:28;;;;;;;75.35;29.77;;;-5.30;22.30;;;;;;5055877;28;20560;-68
2022/12/12 01:35:54;;;;;;;76.20;34.80;;;-5.40;21.80;;;;;;5058716;28;20186;-67
2022/12/12 01:38:19;;;;;;;79.00;37.50;;;-5.40;22.40;;;;;;5059545;28;20285;-69
2022/12/12 01:40:45;;;;;;;77.83;38.10;;;-5.40;22.40;;;;;;5062117;28;20179;-68
2022/12/12 01:43:17;;;;;;;79.13;35.97;;;-5.40;22.20;;;;;;5064041;28;20175;-68
2022/12/12 01:45:58;;;;;;;76.13;29.40;;;-5.50;22.50;;;;;;5063244;28;20412;-69
2022/12/12 01:48:38;;;;;;;77.03;35.40;;;-5.50;22.50;;;;;;5062172;28;20197;-68
2022/12/12 01:51:09;;;;;;;80.65;29.98;;;-5.50;22.60;;;;;;5056952;28;20186;-69
2022/12/12 01:53:36;;;;;;;76.45;36.97;;;-5.60;22.50;;;;;;5056418;28;20179;-69
2022/12/12 01:56:07;;;;;;;78.70;38.53;;;-5.60;22.90;;;;;;5057419;28;20205;-70
2022/12/12 01:58:33;;;;;;;76.20;37.70;;;-5.70;23.00;;;;;;5060401;28;20225;-69
2022/12/12 02:00:59;;;;;;;78.27;37.30;;;-5.70;23.00;;;;;;5060516;28;20187;-69
2022/12/12 02:03:26;;;;;;;79.10;39.05;;;-5.70;22.80;;;;;;5059018;28;20288;-69
2022/12/12 02:05:56;;;;;;;79.10;40.13;;;-5.70;23.00;;;;;;5059686;28;20550;-70
2022/12/12 02:08:22;;;;;;;79.53;34.92;;;-5.80;23.30;;;;;;5058477;28;20221;-70
2022/12/12 02:10:48;;;;;;;79.65;45.40;;;-5.80;23.40;;;;;;5058213;28;20189;-70
2022/12/12 02:13:19;;;;;;;80.88;45.38;;;-5.70;23.20;;;;;;5058201;28;20175;-68
2022/12/12 02:16:10;;;;;;;75.13;37.90;;;-5.70;23.40;;;;;;5057968;28;20170;-68
2022/12/12 02:18:47;;;;;;;78.28;35.88;;;-5.80;22.70;;;;;;5059256;28;20206;-69
2022/12/12 02:21:35;;;;;;;74.80;30.92;;;-5.70;23.40;;;;;;5059798;28;20170;-68
2022/12/12 02:24:06;;;;;;;75.95;34.30;;;-5.80;22.60;;;;;;5059570;28;20205;-69
2022/12/12 02:27:04;;;;;;;74.70;37.58;;;-5.80;23.20;;;;;;5058464;28;20171;-69
2022/12/12 02:29:52;;;;;;;79.32;33.70;;;-5.80;23.60;;;;;;5056978;28;20210;-70
2022/12/12 02:32:24;;;;;;;77.25;38.63;;;-5.90;23.60;;;;;;5059157;28;20179;-69
2022/12/12 02:35:09;;;;;;;78.35;34.70;;;-5.90;23.20;;;;;;5058496;28;20182;-69
2022/12/12 02:38:01;;;;;;;73.95;34.22;;;-6.00;23.30;;;;;;5059346;28;20221;-70
2022/12/12 02:40:34;;;;;;;82.32;45.03;;;-6.10;23.20;;;;;;5049345;28;20264;-69
2022/12/12 02:43:27;;;;;;;89.43;50.42;;;-6.00;22.80;;;;;;5055050;28;20274;-69
2022/12/12 02:46:02;;;;;;;76.25;33.22;;;-6.10;22.90;;;;;;5039953;28;20170;-69
2022/12/12 02:48:34;;;;;;;81.47;36.95;;;-6.20;23.20;;;;;;5040417;28;20194;-70
2022/12/12 02:51:03;;;;;;;74.47;35.47;;;-6.10;22.90;;;;;;5040712;28;20176;-70
2022/12/12 02:53:28;;;;;;;73.13;38.00;;;-6.10;22.80;;;;;;5040309;28;20171;-70
2022/12/12 02:56:28;;;;;;;81.87;39.17;;;-6.20;23.00;;;;;;5039665;28;20546;-71
2022/12/12 02:58:54;;;;;;;76.63;34.17;;;-6.20;22.60;;;;;;5039103;28;20221;-71
2022/12/12 03:01:45;;;;;;;80.68;38.13;;;-6.20;22.70;;;;;;5038488;28;20197;-71
2022/12/12 03:07:57;;;;;;;76.45;32.67;;;-6.20;22.70;;;;;;5028621;28;20237;-70
2022/12/12 03:10:48;;;;;;;85.90;43.30;;;-6.30;22.50;;;;;;5038992;28;20266;-71
2022/12/12 03:13:38;;;;;;;75.70;37.30;;;-6.40;22.70;;;;;;5039667;28;20167;-71
2022/12/12 03:16:08;;;;;;;76.50;39.83;;;-6.40;22.80;;;;;;5038581;28;20175;-71
2022/12/12 03:19:12;;;;;;;76.47;36.65;;;-6.40;22.70;;;;;;5039048;28;20553;-71
2022/12/12 03:22:02;;;;;;;80.97;35.92;;;-6.50;28.10;;;;;;5040267;28;20170;-71
2022/12/12 03:24:50;;;;;;;75.30;36.45;;;-6.50;23.20;;;;;;5040016;28;20194;-70
2022/12/12 03:27:29;;;;;;;81.63;38.33;;;-6.60;23.50;;;;;;5039588;28;20265;-70
2022/12/12 03:30:02;;;;;;;76.72;35.40;;;-6.60;23.50;;;;;;5039471;28;20183;-70
2022/12/12 03:32:56;;;;;;;75.28;40.28;;;-6.60;23.70;;;;;;5039255;28;20243;-71
2022/12/12 03:35:40;;;;;;;74.45;32.95;;;-6.60;23.80;;;;;;5039646;28;20198;-71
2022/12/12 03:38:19;;;;;;;73.38;33.95;;;-6.70;23.60;;;;;;5036202;28;20309;-70
2022/12/12 03:40:50;;;;;;;79.20;34.40;;;-6.70;24.00;;;;;;5037006;28;20174;-70
2022/12/12 03:43:20;;;;;;;77.57;38.55;;;-6.70;24.10;;;;;;5036443;28;20175;-70
2022/12/12 03:45:59;;;;;;;78.85;41.00;;;-6.70;24.10;;;;;;5035542;28;20174;-69
2022/12/12 03:48:36;;;;;;;81.10;33.75;;;-6.70;23.70;;;;;;5036885;28;20673;-70
2022/12/12 03:51:26;;;;;;;77.07;39.75;;;-6.70;24.00;;;;;;5035512;28;20181;-70
2022/12/12 03:54:01;;;;;;;76.53;32.30;;;-6.70;23.80;;;;;;5027037;28;20195;-70
2022/12/12 03:56:42;;;;;;;74.93;34.97;;;-6.60;23.60;;;;;;5036470;28;20202;-70
2022/12/12 03:59:22;;;;;;;74.90;31.23;;;-6.60;23.20;;;;;;5037269;28;20218;-70
2022/12/12 04:01:54;;;;;;;75.10;35.35;;;-6.70;22.70;;;;;;5035860;28;20182;-69
2022/12/12 04:04:33;;;;;;;82.20;38.28;;;-6.70;22.90;;;;;;5035994;28;20172;-70
2022/12/12 04:07:05;;;;;;;79.22;33.03;;;-6.70;23.10;;;;;;5036213;28;20178;-69
2022/12/12 04:15:28;;;;;;;85.40;40.38;;;-6.80;23.10;;;;;;5037831;28;20239;-69
2022/12/12 04:18:11;;;;;;;85.63;43.10;;;-6.80;23.20;;;;;;5037775;28;20228;-69
2022/12/12 04:23:52;;;;;;;77.40;35.05;;;-6.70;22.70;;;;;;5035387;28;20197;-69
2022/12/12 04:26:40;;;;;;;73.85;29.48;;;-6.70;23.00;;;;;;5034839;28;20201;-69
2022/12/12 04:29:17;;;;;;;74.20;29.52;;;-6.70;22.70;;;;;;5036871;28;20220;-68
2022/12/12 04:32:07;;;;;;;80.30;36.80;;;-6.80;22.70;;;;;;5038702;28;20240;-69
2022/12/12 04:34:51;;;;;;;78.97;34.92;;;-6.80;22.60;;;;;;5040134;28;20273;-69
2022/12/12 04:37:24;;;;;;;77.68;31.65;;;-6.80;22.70;;;;;;5040047;28;20614;-68
2022/12/12 04:39:53;;;;;;;82.60;31.45;;;-6.80;22.70;;;;;;5039351;28;20202;-69
2022/12/12 04:42:23;;;;;;;80.07;31.58;;;-6.80;22.40;;;;;;5037067;28;20205;-68
2022/12/12 04:44:53;;;;;;;77.68;32.58;;;-6.90;23.30;;;;;;5036541;28;20231;-68
2022/12/12 04:47:20;;;;;;;78.47;28.98;;;-6.90;23.10;;;;;;5035614;28;20177;-67
2022/12/12 04:49:48;;;;;;;77.95;29.80;;;-6.90;22.60;;;;;;5037130;28;20179;-69
2022/12/12 04:52:17;;;;;;;85.15;34.50;;;-6.90;22.40;;;;;;5037702;28;20185;-68
2022/12/12 04:55:02;;;;;;;78.43;34.10;;;-7.00;22.40;;;;;;5037064;28;20596;-68
2022/12/12 04:57:52;;;;;;;77.63;33.03;;;-7.00;22.90;;;;;;5035999;28;20185;-68
2022/12/12 05:00:19;;;;;;;83.80;36.17;;;-6.90;22.80;;;;;;5036424;28;20229;-68
2022/12/12 05:03:16;;;;;;;78.68;32.40;;;-6.90;21.60;;;;;;5036482;28;20269;-68
2022/12/12 05:05:49;;;;;;;86.90;40.33;;;-7.10;22.40;;;;;;5036559;28;20253;-68
2022/12/12 05:08:25;;;;;;;78.93;32.15;;;-7.20;22.60;;;;;;5037229;28;20187;-68
2022/12/12 05:10:54;;;;;;;83.03;47.22;;;-7.30;23.20;;;;;;5040486;28;20182;-69
2022/12/12 05:13:23;;;;;;;74.10;30.60;;;-7.30;23.50;;;;;;5038648;28;20207;-69
2022/12/12 05:15:52;;;;;;;77.65;37.15;;;-7.30;23.90;;;;;;5038548;28;20670;-68
2022/12/12 05:18:19;;;;;;;80.28;30.15;;;-7.20;23.50;;;;;;5040022;28;20271;-67
2022/12/12 05:20:44;;;;;;;74.72;31.92;;;-7.20;23.50;;;;;;5038766;28;20667;-68
2022/12/12 05:23:10;;;;;;;83.80;30.80;;;-7.10;23.20;;;;;;5040011;28;20194;-68
2022/12/12 05:25:36;;;;;;;84.47;44.70;;;-7.10;22.10;;;;;;5041582;28;20511;-68
2022/12/12 05:28:01;;;;;;;83.10;37.53;;;-7.10;22.30;;;;;;5040744;28;20214;-68
2022/12/12 05:30:27;;;;;;;88.87;45.33;;;-7.10;22.70;;;;;;5034321;28;20217;-68
2022/12/12 05:32:53;;;;;;;82.83;34.07;;;-7.10;22.20;;;;;;5035072;28;20182;-68
2022/12/12 05:35:18;;;;;;;78.83;32.60;;;-7.00;22.70;;;;;;5035320;28;20222;-68
2022/12/12 05:37:44;;;;;;;76.17;31.00;;;-7.00;23.20;;;;;;5035098;28;20198;-68
2022/12/12 05:40:11;;;;;;;75.40;31.03;;;-6.80;23.20;;;;;;5033690;28;20270;-68
2022/12/12 05:42:38;;;;;;;77.07;34.53;;;-6.70;22.60;;;;;;5033233;28;20177;-67
2022/12/12 05:45:05;;;;;;;81.35;41.05;;;-6.60;21.40;;;;;;5034996;28;20530;-67
2022/12/12 05:47:31;;;;;;;85.95;37.90;;;-6.40;21.10;;;;;;5034870;28;20259;-68
2022/12/12 05:49:57;;;;;;;84.22;40.17;;;-6.40;21.10;;;;;;5034848;28;20226;-68
2022/12/12 05:52:23;;;;;;;81.47;37.43;;;-6.40;20.50;;;;;;5034563;28;20202;-68
2022/12/12 05:54:49;;;;;;;81.60;32.60;;;-6.40;20.20;;;;;;5034752;28;20183;-68
2022/12/12 05:57:16;;;;;;;82.20;29.38;;;-6.40;20.30;;;;;;5034642;28;20655;-68
2022/12/12 05:59:41;;;;;;;81.60;31.15;;;-6.30;20.70;;;;;;5034589;28;20699;-68
2022/12/12 06:02:07;;;;;;;83.60;38.77;;;-6.20;20.30;;;;;;5034469;28;20175;-69
2022/12/12 06:04:33;;;;;;;83.27;30.73;;;-6.20;19.90;;;;;;5034599;28;20542;-68
2022/12/12 06:06:58;;;;;;;79.73;32.07;;;-6.20;19.70;;;;;;5034598;28;20250;-68
2022/12/12 06:09:24;;;;;;;84.40;29.10;;;-6.10;19.90;;;;;;5034676;28;20191;-67
2022/12/12 06:11:49;;;;;;;79.13;30.10;;;-6.10;19.50;;;;;;5034859;28;20175;-68
2022/12/12 06:14:15;;;;;;;78.30;24.87;;;-6.00;19.30;;;;;;5033276;28;20179;-68
2022/12/12 06:16:41;;;;;;;73.73;24.73;;;-5.90;19.20;;;;;;5034622;28;20540;-68
2022/12/12 06:19:06;;;;;;;82.97;25.40;;;-5.90;18.30;;;;;;5034354;28;20642;-68
2022/12/12 06:21:32;;;;;;;80.97;30.87;;;-5.80;18.50;;;;;;5033443;28;20536;-68
2022/12/12 06:23:57;;;;;;;80.23;24.50;;;-5.80;17.90;;;;;;5034308;28;20186;-68
2022/12/12 06:26:23;;;;;;;85.63;27.57;;;-5.70;18.00;;;;;;5034425;28;20279;-67
2022/12/12 06:28:49;;;;;;;77.87;28.00;;;-5.70;17.60;;;;;;5034044;28;20206;-67
2022/12/12 06:31:15;;;;;;;78.30;27.90;;;-5.70;17.80;;;;;;5034266;28;20187;-68
2022/12/12 06:33:41;;;;;;;82.13;25.48;;;-5.60;17.80;;;;;;5034069;28;20175;-69
2022/12/12 06:36:11;;;;;;;82.32;32.35;;;-5.50;17.60;;;;;;5034403;28;20308;-68
2022/12/12 06:38:37;;;;;;;77.97;28.15;;;-5.50;17.10;;;;;;5034066;28;20298;-68
2022/12/12 06:41:11;;;;;;;82.68;27.20;;;-5.60;16.80;;;;;;5034180;28;20592;-67
2022/12/12 06:43:37;;;;;;;78.88;27.50;;;-5.60;16.90;;;;;;5033930;28;20183;-67
2022/12/12 06:46:04;;;;;;;82.40;33.93;;;-5.50;17.20;;;;;;5034229;28;20175;-68
2022/12/12 06:48:31;;;;;;;95.45;49.78;;;-5.60;16.80;;;;;;5034026;28;20607;-68
2022/12/12 06:50:58;;;;;;;78.38;29.52;;;-5.60;16.10;;;;;;5034095;28;20175;-68
2022/12/12 06:53:23;;;;;;;83.68;30.80;;;-5.60;16.40;;;;;;5033467;28;20226;-69
2022/12/12 06:55:49;;;;;;;75.93;26.03;;;-5.60;16.60;;;;;;5033894;28;20653;-67
2022/12/12 06:58:15;;;;;;;81.23;28.93;;;-5.60;16.40;;;;;;5032466;28;20242;-68
2022/12/12 07:00:40;;;;;;;83.57;28.23;;;-5.50;17.00;;;;;;5033811;28;20225;-68
2022/12/12 07:03:06;;;;;;;80.07;26.17;;;-5.50;16.60;;;;;;5033509;28;20183;-69
2022/12/12 07:05:32;;;;;;;78.80;26.10;;;-5.50;16.70;;;;;;5032232;28;20175;-68
2022/12/12 07:08:01;;;;;;;80.00;27.07;;;-5.40;16.80;;;;;;5033509;28;20634;-68
2022/12/12 07:10:28;;;;;;;79.40;27.98;;;-5.40;17.00;;;;;;5033553;28;20493;-67
2022/12/12 07:12:53;;;;;;;93.72;45.90;;;-5.40;16.30;;;;;;5031767;28;20175;-67
2022/12/12 07:15:19;;;;;;;74.93;25.47;;;-5.40;16.20;;;;;;5033310;28;20171;-68
2022/12/12 07:17:45;;;;;;;83.80;27.13;;;-5.40;16.80;;;;;;5041398;28;20198;-71
2022/12/12 07:20:10;;;;;;;75.90;23.97;;;-5.50;16.30;;;;;;5050017;28;20209;-71
2022/12/12 07:22:36;;;;;;;95.73;31.93;;;-5.50;16.00;;;;;;5051276;28;20353;-68
2022/12/12 07:25:02;;;;;;;82.03;29.70;;;-5.50;15.90;;;;;;5033039;28;20179;-68
2022/12/12 07:27:27;;;;;;;76.82;24.15;;;-5.40;15.80;;;;;;5032619;28;20270;-67
2022/12/12 07:29:53;;;;;;;79.50;27.17;;;-5.40;15.80;;;;;;5048277;28;20269;-68
2022/12/12 07:32:18;;;;;;;76.60;25.40;;;-5.40;15.60;;;;;;5047569;28;20188;-69
2022/12/12 07:34:44;;;;;;;86.47;32.30;;;-5.30;15.60;;;;;;5032863;28;20178;-68
2022/12/12 07:37:10;;;;;;;79.10;24.30;;;-5.30;15.40;;;;;;5034768;28;20183;-69
2022/12/12 07:39:36;;;;;;;86.77;38.93;;;-5.30;15.50;;;;;;5052541;28;20253;-68
2022/12/12 07:42:01;;;;;;;81.88;34.83;;;-5.30;15.60;;;;;;5052106;28;20655;-68
2022/12/12 07:44:27;;;;;;;80.87;23.80;;;-5.30;15.50;;;;;;5052299;28;20213;-69
2022/12/12 07:46:53;;;;;;;78.77;26.60;;;-5.20;17.70;;;;;;5052120;28;20265;-69
2022/12/12 07:49:18;;;;;;;98.97;57.77;;;-5.20;17.70;;;;;;5052221;28;20488;-68
2022/12/12 07:51:44;;;;;;;79.03;30.50;;;-5.10;18.10;;;;;;5035181;28;20320;-68
2022/12/12 07:54:10;;;;;;;82.87;27.13;;;-4.90;18.00;;;;;;5032915;28;20184;-68
2022/12/12 07:56:35;;;;;;;121.37;78.97;;;-4.80;18.10;;;;;;5032341;28;20205;-67
2022/12/12 07:59:01;;;;;;;79.00;27.47;;;-4.70;17.60;;;;;;5029282;28;20229;-68
2022/12/12 08:01:27;;;;;;;80.03;31.77;;;-4.50;17.10;;;;;;5040703;28;20210;-68
2022/12/12 08:03:53;;;;;;;83.47;34.70;;;-4.40;16.60;;;;;;5029911;28;20558;-68
2022/12/12 08:06:20;;;;;;;81.55;40.60;;;-4.40;16.40;;;;;;5026972;28;20237;-68
2022/12/12 08:08:47;;;;;;;80.53;35.20;;;-4.30;16.30;;;;;;5027315;28;20206;-68
2022/12/12 08:11:15;;;;;;;84.10;36.13;;;-4.20;16.10;;;;;;5028081;28;20535;-67
2022/12/12 08:13:41;;;;;;;83.50;37.40;;;-4.10;16.20;;;;;;5038022;28;20278;-67
2022/12/12 08:16:15;;;;;;;79.55;38.33;;;-3.90;16.30;;;;;;5048660;28;20201;-68
2022/12/12 08:18:42;;;;;;;79.63;40.53;;;-3.80;16.30;;;;;;5064024;28;20249;-68
2022/12/12 08:21:09;;;;;;;83.28;33.63;;;-3.60;16.30;;;;;;5063322;28;20558;-68
2022/12/12 08:23:36;;;;;;;79.47;33.63;;;-3.60;15.80;;;;;;5046395;28;20192;-68
2022/12/12 08:26:07;;;;;;;83.45;35.83;;;-3.60;16.10;;;;;;5063115;28;20228;-68
2022/12/12 08:28:34;;;;;;;84.97;42.08;;;-3.60;16.40;;;;;;5048659;28;20658;-68
2022/12/12 08:30:59;;;;;;;81.95;36.92;;;-3.50;16.40;;;;;;5047299;28;20181;-69
2022/12/12 08:33:25;;;;;;;82.40;39.77;;;-3.50;16.50;;;;;;5047657;28;20186;-68
2022/12/12 08:35:50;;;;;;;80.07;35.30;;;-3.40;16.80;;;;;;5046466;28;20201;-68
2022/12/12 08:38:16;;;;;;;91.97;46.57;;;-3.30;17.50;;;;;;5028688;28;20247;-68
2022/12/12 08:40:41;;;;;;;84.00;43.33;;;-3.20;18.00;;;;;;5028487;28;20181;-68
2022/12/12 08:43:08;;;;;;;77.87;31.83;;;-3.30;17.90;;;;;;5027409;28;20194;-68
2022/12/12 08:45:36;;;;;;;97.10;48.78;;;-3.30;18.00;;;;;;5028785;28;20265;-69
2022/12/12 08:48:02;;;;;;;83.10;37.00;;;-3.30;18.00;;;;;;5063632;28;20570;-68
2022/12/12 08:50:27;;;;;;;83.37;36.03;;;-3.30;18.50;;;;;;5062005;28;20201;-68
2022/12/12 08:52:53;;;;;;;83.70;38.97;;;-3.20;18.50;;;;;;5047134;28;20707;-68
2022/12/12 08:55:19;;;;;;;81.33;36.67;;;-3.10;17.90;;;;;;5048208;28;20186;-68
2022/12/12 08:57:44;;;;;;;85.70;34.87;;;-3.20;18.10;;;;;;5047430;28;20202;-68
2022/12/12 09:00:11;;;;;;;89.17;41.70;;;-3.10;18.20;;;;;;5045905;28;20212;-68
2022/12/12 09:02:36;;;;;;;86.40;34.17;;;-3.00;18.30;;;;;;5047731;28;20208;-68
2022/12/12 09:05:02;;;;;;;86.37;31.93;;;-2.90;18.40;;;;;;5047059;28;20414;-69
2022/12/12 09:07:28;;;;;;;87.67;37.77;;;-2.90;19.00;;;;;;5048710;28;20546;-68
2022/12/12 09:09:53;;;;;;;85.57;36.73;;;-2.70;18.10;;;;;;5051191;28;20187;-67
2022/12/12 09:12:19;;;;;;;79.40;28.40;;;-2.70;17.90;;;;;;5050964;28;20196;-67
2022/12/12 09:14:44;;;;;;;89.10;33.70;;;-2.50;17.50;;;;;;5049869;28;20188;-69
2022/12/12 09:17:10;;;;;;;85.20;37.60;;;-2.40;16.70;;;;;;5064901;28;20185;-70
2022/12/12 09:19:35;;;;;;;86.73;35.13;;;-2.50;16.20;;;;;;5049674;28;20212;-67
2022/12/12 09:22:02;;;;;;;82.60;36.77;;;-2.40;16.10;;;;;;5031292;28;20252;-68
2022/12/12 09:24:27;;;;;;;77.82;31.67;;;-2.50;15.40;;;;;;5031728;28;20204;-69
2022/12/12 09:26:53;;;;;;;84.60;45.10;;;-2.60;15.50;;;;;;5031528;28;20176;-69
2022/12/12 09:29:19;;;;;;;102.47;72.17;;;-2.60;16.00;;;;;;5031133;28;20219;-69
2022/12/12 09:31:44;;;;;;;88.73;32.23;;;-2.60;16.20;;;;;;5042726;28;20437;-69
2022/12/12 09:34:10;;;;;;;80.70;33.57;;;-2.50;15.40;;;;;;5031367;28;20271;-69
2022/12/12 09:36:35;;;;;;;89.27;37.43;;;-2.50;15.40;;;;;;5031474;28;20556;-69
2022/12/12 09:39:01;;;;;;;80.50;34.63;;;-2.40;15.40;;;;;;5031113;28;20219;-69
2022/12/12 09:41:29;;;;;;;82.38;42.20;;;-2.40;15.40;;;;;;5031147;28;20554;-69
2022/12/12 09:44:11;;;;;;;77.13;33.28;;;-2.50;15.40;;;;;;5038995;28;20240;-69
2022/12/12 09:46:43;;;;;;;76.22;32.58;;;-2.80;15.70;;;;;;5051557;28;20274;-70
2022/12/12 09:49:30;;;;;;;80.80;32.85;;;-2.60;16.10;;;;;;5049905;28;20200;-68
2022/12/12 09:51:56;;;;;;;77.43;35.55;;;-2.50;15.40;;;;;;5051142;28;20176;-67
2022/12/12 09:54:25;;;;;;;85.25;39.05;;;-2.60;15.30;;;;;;5050106;28;20235;-68
2022/12/12 09:57:09;;;;;;;78.10;33.38;;;-2.70;15.50;;;;;;5053573;28;20183;-68
2022/12/12 10:00:08;;;;;;;81.93;36.17;;;-2.80;15.20;;;;;;5055590;28;20208;-69
2022/12/12 10:03:08;;;;;;;79.20;33.47;;;-2.60;15.30;;;;;;5057595;28;20169;-68
2022/12/12 10:05:40;;;;;;;159.38;56.20;;;-2.50;15.30;;;;;;5059893;28;20310;-68
2022/12/12 10:08:35;;;;;;;86.72;40.67;;;-2.30;14.80;;;;;;5056891;28;20195;-68
2022/12/12 10:11:07;;;;;;;80.78;36.85;;;-2.00;13.80;;;;;;5035742;28;20199;-68
2022/12/12 10:13:34;;;;;;;83.13;36.15;;;-1.60;12.80;;;;;;5051981;28;20186;-73
2022/12/12 10:16:09;;;;;;;83.18;44.85;;;-1.50;12.60;;;;;;5069224;28;20276;-69
2022/12/12 10:18:40;;;;;;;88.80;54.38;;;-1.20;11.90;;;;;;5069825;28;20204;-68
2022/12/12 10:21:25;;;;;;;94.03;54.70;;;-1.10;12.10;;;;;;5041223;28;20187;-69
2022/12/12 10:23:58;;;;;;;89.30;57.13;;;-0.90;11.20;;;;;;5037827;28;20185;-69
2022/12/12 10:26:27;;;;;;;98.90;64.57;;;-0.80;11.60;;;;;;5054160;28;20172;-69
2022/12/12 10:29:00;;;;;;;89.88;66.20;;;-0.50;10.50;;;;;;5053799;28;20212;-69
2022/12/12 10:32:00;;;;;;;106.30;71.38;;;-0.50;10.10;;;;;;5043474;28;20189;-71
2022/12/12 10:34:44;;;;;;;100.88;83.82;;;-0.40;9.30;;;;;;5049424;28;20652;-69
2022/12/12 10:38:00;;;;;;;86.78;66.53;;;-0.40;8.60;;;;;;5035774;28;20176;-68
2022/12/12 10:40:32;;;;;;;97.07;66.45;;;-0.70;9.50;;;;;;5024659;28;20733;-70
2022/12/12 10:43:01;;;;;;;85.03;58.00;;;-0.70;9.90;;;;;;5033691;28;20183;-69
2022/12/12 10:45:53;;;;;;;101.45;88.35;;;-0.60;10.00;;;;;;5033696;28;20648;-69
2022/12/12 10:48:19;;;;;;;92.50;82.45;;;-0.40;9.90;;;;;;5033802;28;20202;-69
2022/12/12 10:50:56;;;;;;;84.30;60.63;;;-0.20;9.40;;;;;;5033669;28;20210;-69
2022/12/12 10:53:22;;;;;;;97.28;75.53;;;-0.20;9.10;;;;;;5048766;28;20187;-68
2022/12/12 10:55:52;;;;;;;87.57;62.97;;;-0.40;8.20;;;;;;5032428;28;20186;-68
2022/12/12 10:58:18;;;;;;;88.85;71.65;;;-0.40;9.40;;;;;;5033593;28;20301;-69
2022/12/12 11:00:46;;;;;;;97.47;61.17;;;-0.30;9.40;;;;;;5033643;28;20255;-68
2022/12/12 11:03:21;;;;;;;95.35;67.30;;;-0.40;9.80;;;;;;5033287;28;20182;-68
2022/12/12 11:05:47;;;;;;;90.97;72.95;;;-0.30;9.50;;;;;;5036147;28;20178;-68
2022/12/12 11:08:28;;;;;;;114.63;102.75;;;0.00;8.50;;;;;;5052180;28;20190;-69
2022/12/12 11:11:12;;;;;;;105.32;94.28;;;0.20;8.60;;;;;;5033456;28;20602;-69
2022/12/12 11:13:45;;;;;;;92.43;64.80;;;-0.10;8.30;;;;;;5033054;28;20178;-69
2022/12/12 11:16:21;;;;;;;94.32;76.68;;;-0.40;9.50;;;;;;5033242;28;20175;-69
2022/12/12 11:19:04;;;;;;;91.82;67.97;;;-0.30;9.40;;;;;;5035153;28;20214;-68
2022/12/12 11:21:33;;;;;;;89.45;61.67;;;-0.40;9.50;;;;;;5052789;28;20205;-69
2022/12/12 11:24:02;;;;;;;86.57;64.55;;;-0.70;10.50;;;;;;5050620;28;20206;-69
2022/12/12 11:26:28;;;;;;;89.55;63.80;;;-0.70;10.70;;;;;;5051922;28;20663;-69
2022/12/12 11:28:58;;;;;;;85.90;67.60;;;-0.80;11.20;;;;;;5051851;28;20301;-69
2022/12/12 11:31:31;;;;;;;92.63;69.68;;;-0.70;10.50;;;;;;5053037;28;20173;-68
2022/12/12 11:33:59;;;;;;;92.47;60.30;;;-0.70;10.70;;;;;;5047543;28;20683;-69
2022/12/12 11:36:34;;;;;;;88.32;65.80;;;-0.70;10.80;;;;;;5039614;28;20187;-69
2022/12/12 11:39:10;;;;;;;87.63;58.65;;;-0.70;11.20;;;;;;5052403;28;20678;-69
2022/12/12 11:42:16;;;;;;;103.72;74.45;;;-0.80;11.30;;;;;;5052438;28;20242;-69
2022/12/12 11:44:43;;;;;;;84.60;55.67;;;-0.90;11.20;;;;;;5048000;28;20268;-70
2022/12/12 11:47:25;;;;;;;90.18;67.88;;;-0.80;11.50;;;;;;5052254;28;20177;-70
2022/12/12 11:49:57;;;;;;;82.35;52.60;;;-0.90;11.30;;;;;;5052424;28;20181;-68
2022/12/12 11:52:27;;;;;;;84.53;50.53;;;-0.90;11.40;;;;;;5052241;28;20175;-69
2022/12/12 11:54:53;;;;;;;83.00;55.28;;;-1.00;12.10;;;;;;5052575;28;20201;-69
2022/12/12 11:57:53;;;;;;;82.45;54.63;;;-1.00;12.10;;;;;;5051037;28;20212;-70
2022/12/12 12:00:23;;;;;;;82.13;50.58;;;-0.80;12.20;;;;;;5053767;28;20198;-69
2022/12/12 12:03:35;;;;;;;86.82;65.20;;;-0.80;11.50;;;;;;5053731;28;20174;-70
2022/12/12 12:06:01;;;;;;;88.93;61.65;;;-0.60;10.50;;;;;;5030861;28;20186;-69
2022/12/12 12:08:42;;;;;;;88.93;57.47;;;-0.60;10.70;;;;;;5031073;28;20195;-69
2022/12/12 12:11:52;;;;;;;88.55;56.38;;;-0.60;11.50;;;;;;5043874;28;20605;-70
2022/12/12 12:14:33;;;;;;;89.35;67.10;;;-0.60;11.10;;;;;;5040631;28;20201;-69
2022/12/12 12:17:22;;;;;;;89.95;70.78;;;-0.50;11.30;;;;;;5052116;28;20178;-70
2022/12/12 12:20:16;;;;;;;97.05;63.10;;;-0.40;11.40;;;;;;5051028;28;20195;-70
2022/12/12 12:23:03;;;;;;;91.45;71.88;;;-0.40;10.60;;;;;;5051712;28;20179;-70
2022/12/12 12:25:49;;;;;;;87.60;64.90;;;-0.60;10.80;;;;;;5050580;28;20171;-70
2022/12/12 12:28:29;;;;;;;89.20;62.50;;;-0.50;10.70;;;;;;5051652;28;20412;-69
2022/12/12 12:31:13;;;;;;;88.28;68.10;;;-0.40;10.70;;;;;;5045843;28;20436;-70
2022/12/12 12:34:17;;;;;;;90.32;64.28;;;-0.40;10.40;;;;;;5044437;28;20202;-70
2022/12/12 12:37:04;;;;;;;100.95;89.03;;;-0.40;10.00;;;;;;5051886;28;20257;-69
2022/12/12 12:39:47;;;;;;;94.25;58.75;;;-0.40;10.50;;;;;;5051864;28;20421;-69
2022/12/12 12:42:16;;;;;;;84.47;55.53;;;-0.30;10.80;;;;;;5050173;28;20182;-70
2022/12/12 12:45:02;;;;;;;90.40;62.92;;;-0.30;10.80;;;;;;5038602;28;20183;-69
2022/12/12 12:47:51;;;;;;;89.65;56.40;;;-0.30;11.10;;;;;;5032058;28;20664;-69
2022/12/12 12:50:30;;;;;;;88.80;65.10;;;-0.30;11.20;;;;;;5031781;28;20675;-70
2022/12/12 12:53:05;;;;;;;91.85;65.90;;;-0.40;11.80;;;;;;5031549;28;20172;-71
2022/12/12 12:55:48;;;;;;;88.75;65.53;;;-0.30;11.10;;;;;;5030481;28;20560;-70
2022/12/12 12:58:26;;;;;;;93.15;69.53;;;-0.40;11.50;;;;;;5030722;28;20207;-70
2022/12/12 13:01:12;;;;;;;85.97;55.65;;;-0.40;11.90;;;;;;5026446;28;20209;-67
2022/12/12 13:03:46;;;;;;;87.07;59.88;;;-0.30;11.60;;;;;;5027146;28;20179;-68
2022/12/12 13:06:21;;;;;;;94.35;61.33;;;-0.30;10.90;;;;;;5026425;28;20671;-68